sensor_id;sensor_type;location;lat;lon;timestamp;P1;durP1;ratioP1;P2;durP2;ratioP2
27293;SDS011;14785;52.556;13.430;2023-03-01T00:02:16;20.83;;;10.07;;
27293;SDS011;14785;52.556;13.430;2023-03-01T00:04:41;23.20;;;10.50;;
27293;SDS011;14785;52.556;13.430;2023-03-01T00:07:07;25.80;;;11.37;;
27293;SDS011;14785;52.556;13.430;2023-03-01T00:09:32;25.43;;;11.13;;
27293;SDS011;14785;52.556;13.430;2023-03-01T00:11:58;24.10;;;10.07;;
27293;SDS011;14785;52.556;13.430;2023-03-01T00:14:23;19.30;;;9.03;;
27293;SDS011;14785;52.556;13.430;2023-03-01T00:16:49;24.10;;;10.07;;
27293;SDS011;14785;52.556;13.430;2023-03-01T00:19:15;21.53;;;10.33;;
27293;SDS011;14785;52.556;13.430;2023-03-01T00:21:43;21.02;;;9.93;;
27293;SDS011;14785;52.556;13.430;2023-03-01T00:24:08;22.27;;;8.73;;
27293;SDS011;14785;52.556;13.430;2023-03-01T00:26:34;19.33;;;9.23;;
27293;SDS011;14785;52.556;13.430;2023-03-01T00:28:59;19.20;;;8.40;;
27293;SDS011;14785;52.556;13.430;2023-03-01T00:31:26;13.18;;;7.15;;
27293;SDS011;14785;52.556;13.430;2023-03-01T00:33:55;17.67;;;8.40;;
27293;SDS011;14785;52.556;13.430;2023-03-01T00:36:22;21.48;;;9.23;;
27293;SDS011;14785;52.556;13.430;2023-03-01T00:38:49;17.30;;;8.52;;
27293;SDS011;14785;52.556;13.430;2023-03-01T00:41:15;19.40;;;10.27;;
27293;SDS011;14785;52.556;13.430;2023-03-01T00:43:42;19.45;;;9.65;;
27293;SDS011;14785;52.556;13.430;2023-03-01T00:46:09;24.60;;;9.65;;
27293;SDS011;14785;52.556;13.430;2023-03-01T00:48:41;26.58;;;11.82;;
27293;SDS011;14785;52.556;13.430;2023-03-01T00:51:11;34.08;;;14.50;;
27293;SDS011;14785;52.556;13.430;2023-03-01T00:53:38;31.73;;;13.05;;
27293;SDS011;14785;52.556;13.430;2023-03-01T00:56:06;23.25;;;10.27;;
27293;SDS011;14785;52.556;13.430;2023-03-01T00:58:33;23.10;;;10.10;;
27293;SDS011;14785;52.556;13.430;2023-03-01T01:01:00;20.13;;;8.90;;
27293;SDS011;14785;52.556;13.430;2023-03-01T01:03:26;15.07;;;7.28;;
27293;SDS011;14785;52.556;13.430;2023-03-01T01:05:51;21.60;;;9.37;;
27293;SDS011;14785;52.556;13.430;2023-03-01T01:08:17;17.58;;;10.52;;
27293;SDS011;14785;52.556;13.430;2023-03-01T01:13:09;21.58;;;9.68;;
27293;SDS011;14785;52.556;13.430;2023-03-01T01:15:35;16.23;;;8.77;;
27293;SDS011;14785;52.556;13.430;2023-03-01T01:18:01;25.00;;;12.48;;
27293;SDS011;14785;52.556;13.430;2023-03-01T01:20:26;32.22;;;11.60;;
27293;SDS011;14785;52.556;13.430;2023-03-01T01:22:52;21.65;;;10.77;;
27293;SDS011;14785;52.556;13.430;2023-03-01T01:25:18;25.37;;;10.47;;
27293;SDS011;14785;52.556;13.430;2023-03-01T01:27:44;23.50;;;11.52;;
27293;SDS011;14785;52.556;13.430;2023-03-01T01:30:10;29.48;;;13.05;;
27293;SDS011;14785;52.556;13.430;2023-03-01T01:32:36;20.00;;;11.07;;
27293;SDS011;14785;52.556;13.430;2023-03-01T01:35:01;15.53;;;10.00;;
27293;SDS011;14785;52.556;13.430;2023-03-01T01:37:26;21.87;;;11.97;;
27293;SDS011;14785;52.556;13.430;2023-03-01T01:39:56;24.63;;;10.85;;
27293;SDS011;14785;52.556;13.430;2023-03-01T01:42:26;24.20;;;10.68;;
27293;SDS011;14785;52.556;13.430;2023-03-01T01:48:13;22.85;;;11.15;;
27293;SDS011;14785;52.556;13.430;2023-03-01T01:50:45;31.80;;;13.02;;
27293;SDS011;14785;52.556;13.430;2023-03-01T01:53:20;30.33;;;12.02;;
27293;SDS011;14785;52.556;13.430;2023-03-01T01:55:47;19.90;;;10.52;;
27293;SDS011;14785;52.556;13.430;2023-03-01T01:58:17;22.40;;;10.88;;
27293;SDS011;14785;52.556;13.430;2023-03-01T02:00:45;31.13;;;12.82;;
27293;SDS011;14785;52.556;13.430;2023-03-01T02:03:14;26.55;;;11.02;;
27293;SDS011;14785;52.556;13.430;2023-03-01T02:08:12;18.67;;;9.10;;
27293;SDS011;14785;52.556;13.430;2023-03-01T02:10:39;30.08;;;10.82;;
27293;SDS011;14785;52.556;13.430;2023-03-01T02:15:32;24.45;;;11.40;;
27293;SDS011;14785;52.556;13.430;2023-03-01T02:17:58;22.70;;;10.75;;
27293;SDS011;14785;52.556;13.430;2023-03-01T02:22:58;19.88;;;10.13;;
27293;SDS011;14785;52.556;13.430;2023-03-01T02:30:56;22.27;;;8.27;;
27293;SDS011;14785;52.556;13.430;2023-03-01T02:33:40;21.83;;;7.15;;
27293;SDS011;14785;52.556;13.430;2023-03-01T02:36:09;19.33;;;9.68;;
27293;SDS011;14785;52.556;13.430;2023-03-01T02:38:39;14.73;;;7.90;;
27293;SDS011;14785;52.556;13.430;2023-03-01T02:41:06;17.55;;;8.30;;
27293;SDS011;14785;52.556;13.430;2023-03-01T02:43:33;22.10;;;8.38;;
27293;SDS011;14785;52.556;13.430;2023-03-01T02:46:03;13.80;;;6.78;;
27293;SDS011;14785;52.556;13.430;2023-03-01T02:48:42;13.90;;;6.95;;
27293;SDS011;14785;52.556;13.430;2023-03-01T02:51:22;14.85;;;7.60;;
27293;SDS011;14785;52.556;13.430;2023-03-01T02:56:46;22.92;;;8.82;;
27293;SDS011;14785;52.556;13.430;2023-03-01T02:59:13;30.15;;;11.88;;
27293;SDS011;14785;52.556;13.430;2023-03-01T03:01:40;20.98;;;9.43;;
27293;SDS011;14785;52.556;13.430;2023-03-01T03:04:08;15.75;;;7.97;;
27293;SDS011;14785;52.556;13.430;2023-03-01T03:06:42;14.57;;;7.60;;
27293;SDS011;14785;52.556;13.430;2023-03-01T03:09:09;23.25;;;8.50;;
27293;SDS011;14785;52.556;13.430;2023-03-01T03:11:35;16.50;;;7.35;;
27293;SDS011;14785;52.556;13.430;2023-03-01T03:14:02;18.75;;;7.68;;
27293;SDS011;14785;52.556;13.430;2023-03-01T03:16:28;15.95;;;8.43;;
27293;SDS011;14785;52.556;13.430;2023-03-01T03:18:54;18.33;;;7.68;;
27293;SDS011;14785;52.556;13.430;2023-03-01T03:21:29;16.45;;;8.32;;
27293;SDS011;14785;52.556;13.430;2023-03-01T03:23:56;21.95;;;8.27;;
27293;SDS011;14785;52.556;13.430;2023-03-01T03:26:22;15.73;;;8.63;;
27293;SDS011;14785;52.556;13.430;2023-03-01T03:28:48;28.90;;;10.97;;
27293;SDS011;14785;52.556;13.430;2023-03-01T03:31:14;19.93;;;10.37;;
27293;SDS011;14785;52.556;13.430;2023-03-01T03:33:40;19.77;;;9.52;;
27293;SDS011;14785;52.556;13.430;2023-03-01T03:36:05;21.17;;;8.17;;
27293;SDS011;14785;52.556;13.430;2023-03-01T03:38:31;13.48;;;6.05;;
27293;SDS011;14785;52.556;13.430;2023-03-01T03:41:02;14.23;;;6.37;;
27293;SDS011;14785;52.556;13.430;2023-03-01T03:43:30;17.40;;;7.63;;
27293;SDS011;14785;52.556;13.430;2023-03-01T03:45:58;19.80;;;8.13;;
27293;SDS011;14785;52.556;13.430;2023-03-01T03:48:25;18.92;;;8.50;;
27293;SDS011;14785;52.556;13.430;2023-03-01T03:50:52;17.27;;;7.95;;
27293;SDS011;14785;52.556;13.430;2023-03-01T03:53:19;21.25;;;8.18;;
27293;SDS011;14785;52.556;13.430;2023-03-01T03:55:46;12.02;;;7.70;;
27293;SDS011;14785;52.556;13.430;2023-03-01T03:58:14;18.33;;;8.93;;
27293;SDS011;14785;52.556;13.430;2023-03-01T04:00:41;14.73;;;8.05;;
27293;SDS011;14785;52.556;13.430;2023-03-01T04:03:08;14.50;;;8.52;;
27293;SDS011;14785;52.556;13.430;2023-03-01T04:05:36;16.00;;;8.60;;
27293;SDS011;14785;52.556;13.430;2023-03-01T04:08:01;16.20;;;7.28;;
27293;SDS011;14785;52.556;13.430;2023-03-01T04:10:31;23.47;;;6.97;;
27293;SDS011;14785;52.556;13.430;2023-03-01T04:12:58;15.55;;;8.27;;
27293;SDS011;14785;52.556;13.430;2023-03-01T04:15:24;12.00;;;7.27;;
27293;SDS011;14785;52.556;13.430;2023-03-01T04:17:51;17.73;;;8.25;;
27293;SDS011;14785;52.556;13.430;2023-03-01T04:20:20;16.60;;;8.15;;
27293;SDS011;14785;52.556;13.430;2023-03-01T04:22:56;16.13;;;7.07;;
27293;SDS011;14785;52.556;13.430;2023-03-01T04:25:35;23.05;;;9.35;;
27293;SDS011;14785;52.556;13.430;2023-03-01T04:31:05;30.08;;;10.75;;
27293;SDS011;14785;52.556;13.430;2023-03-01T04:33:38;18.45;;;10.68;;
27293;SDS011;14785;52.556;13.430;2023-03-01T04:36:05;19.00;;;9.68;;
27293;SDS011;14785;52.556;13.430;2023-03-01T04:38:33;12.77;;;7.28;;
27293;SDS011;14785;52.556;13.430;2023-03-01T04:41:01;20.92;;;8.20;;
27293;SDS011;14785;52.556;13.430;2023-03-01T04:43:28;20.70;;;9.90;;
27293;SDS011;14785;52.556;13.430;2023-03-01T04:45:53;15.47;;;7.43;;
27293;SDS011;14785;52.556;13.430;2023-03-01T04:48:19;28.37;;;10.30;;
27293;SDS011;14785;52.556;13.430;2023-03-01T04:50:44;15.13;;;7.23;;
27293;SDS011;14785;52.556;13.430;2023-03-01T04:53:10;15.53;;;7.27;;
27293;SDS011;14785;52.556;13.430;2023-03-01T04:55:35;13.60;;;7.43;;
27293;SDS011;14785;52.556;13.430;2023-03-01T04:58:01;20.47;;;8.43;;
27293;SDS011;14785;52.556;13.430;2023-03-01T05:00:26;17.67;;;8.00;;
27293;SDS011;14785;52.556;13.430;2023-03-01T05:02:53;17.47;;;8.97;;
27293;SDS011;14785;52.556;13.430;2023-03-01T05:05:25;22.63;;;9.40;;
27293;SDS011;14785;52.556;13.430;2023-03-01T05:07:56;21.40;;;9.02;;
27293;SDS011;14785;52.556;13.430;2023-03-01T05:10:24;19.48;;;7.40;;
27293;SDS011;14785;52.556;13.430;2023-03-01T05:12:50;18.48;;;9.13;;
27293;SDS011;14785;52.556;13.430;2023-03-01T05:17:43;23.05;;;9.30;;
27293;SDS011;14785;52.556;13.430;2023-03-01T05:20:09;24.05;;;11.40;;
27293;SDS011;14785;52.556;13.430;2023-03-01T05:22:36;32.17;;;11.10;;
27293;SDS011;14785;52.556;13.430;2023-03-01T05:25:02;19.50;;;8.65;;
27293;SDS011;14785;52.556;13.430;2023-03-01T05:29:54;20.52;;;8.38;;
27293;SDS011;14785;52.556;13.430;2023-03-01T05:32:20;17.15;;;8.57;;
27293;SDS011;14785;52.556;13.430;2023-03-01T05:34:46;20.53;;;8.60;;
27293;SDS011;14785;52.556;13.430;2023-03-01T05:37:11;25.77;;;9.20;;
27293;SDS011;14785;52.556;13.430;2023-03-01T05:39:38;20.02;;;8.55;;
27293;SDS011;14785;52.556;13.430;2023-03-01T05:42:04;22.80;;;9.27;;
27293;SDS011;14785;52.556;13.430;2023-03-01T05:44:29;17.93;;;8.67;;
27293;SDS011;14785;52.556;13.430;2023-03-01T05:46:55;20.00;;;9.10;;
27293;SDS011;14785;52.556;13.430;2023-03-01T05:49:21;20.35;;;7.03;;
27293;SDS011;14785;52.556;13.430;2023-03-01T05:51:51;16.58;;;8.70;;
27293;SDS011;14785;52.556;13.430;2023-03-01T05:54:18;18.80;;;8.77;;
27293;SDS011;14785;52.556;13.430;2023-03-01T05:56:45;19.60;;;7.30;;
27293;SDS011;14785;52.556;13.430;2023-03-01T05:59:11;20.90;;;8.80;;
27293;SDS011;14785;52.556;13.430;2023-03-01T06:01:37;30.92;;;11.57;;
27293;SDS011;14785;52.556;13.430;2023-03-01T06:04:03;20.67;;;8.15;;
27293;SDS011;14785;52.556;13.430;2023-03-01T06:06:29;27.73;;;8.63;;
27293;SDS011;14785;52.556;13.430;2023-03-01T06:08:58;23.73;;;8.55;;
27293;SDS011;14785;52.556;13.430;2023-03-01T06:11:23;14.30;;;7.33;;
27293;SDS011;14785;52.556;13.430;2023-03-01T06:13:49;15.97;;;7.03;;
27293;SDS011;14785;52.556;13.430;2023-03-01T06:16:14;21.87;;;9.87;;
27293;SDS011;14785;52.556;13.430;2023-03-01T06:18:40;22.33;;;9.53;;
27293;SDS011;14785;52.556;13.430;2023-03-01T06:21:06;22.20;;;9.95;;
27293;SDS011;14785;52.556;13.430;2023-03-01T06:23:32;20.48;;;10.27;;
27293;SDS011;14785;52.556;13.430;2023-03-01T06:25:58;16.30;;;8.02;;
27293;SDS011;14785;52.556;13.430;2023-03-01T06:30:50;28.77;;;11.48;;
27293;SDS011;14785;52.556;13.430;2023-03-01T06:33:16;21.77;;;10.77;;
27293;SDS011;14785;52.556;13.430;2023-03-01T06:35:45;20.95;;;9.70;;
27293;SDS011;14785;52.556;13.430;2023-03-01T06:38:11;21.58;;;11.65;;
27293;SDS011;14785;52.556;13.430;2023-03-01T06:40:40;19.95;;;9.10;;
27293;SDS011;14785;52.556;13.430;2023-03-01T06:45:32;21.80;;;9.95;;
27293;SDS011;14785;52.556;13.430;2023-03-01T06:48:02;26.88;;;11.48;;
27293;SDS011;14785;52.556;13.430;2023-03-01T06:50:31;25.88;;;11.13;;
27293;SDS011;14785;52.556;13.430;2023-03-01T06:52:56;30.53;;;10.23;;
27293;SDS011;14785;52.556;13.430;2023-03-01T06:55:22;18.92;;;9.07;;
27293;SDS011;14785;52.556;13.430;2023-03-01T06:57:48;18.38;;;8.43;;
27293;SDS011;14785;52.556;13.430;2023-03-01T07:00:14;22.70;;;9.13;;
27293;SDS011;14785;52.556;13.430;2023-03-01T07:02:39;13.85;;;7.97;;
27293;SDS011;14785;52.556;13.430;2023-03-01T07:05:05;36.33;;;8.90;;
27293;SDS011;14785;52.556;13.430;2023-03-01T07:07:31;21.38;;;10.02;;
27293;SDS011;14785;52.556;13.430;2023-03-01T07:09:57;32.13;;;9.90;;
27293;SDS011;14785;52.556;13.430;2023-03-01T07:12:22;27.42;;;11.23;;
27293;SDS011;14785;52.556;13.430;2023-03-01T07:14:48;12.57;;;7.10;;
27293;SDS011;14785;52.556;13.430;2023-03-01T07:17:13;16.83;;;7.57;;
27293;SDS011;14785;52.556;13.430;2023-03-01T07:19:39;16.40;;;8.73;;
27293;SDS011;14785;52.556;13.430;2023-03-01T07:22:04;13.53;;;6.80;;
27293;SDS011;14785;52.556;13.430;2023-03-01T07:24:32;19.20;;;7.80;;
27293;SDS011;14785;52.556;13.430;2023-03-01T07:26:58;14.98;;;6.82;;
27293;SDS011;14785;52.556;13.430;2023-03-01T07:29:23;18.17;;;7.50;;
27293;SDS011;14785;52.556;13.430;2023-03-01T07:31:49;20.63;;;9.30;;
27293;SDS011;14785;52.556;13.430;2023-03-01T07:34:14;25.47;;;10.30;;
27293;SDS011;14785;52.556;13.430;2023-03-01T07:36:40;38.97;;;10.43;;
27293;SDS011;14785;52.556;13.430;2023-03-01T07:39:08;24.05;;;11.10;;
27293;SDS011;14785;52.556;13.430;2023-03-01T07:41:35;17.77;;;8.85;;
27293;SDS011;14785;52.556;13.430;2023-03-01T07:44:01;19.45;;;9.18;;
27293;SDS011;14785;52.556;13.430;2023-03-01T07:46:26;14.87;;;8.70;;
27293;SDS011;14785;52.556;13.430;2023-03-01T07:48:52;20.80;;;7.80;;
27293;SDS011;14785;52.556;13.430;2023-03-01T07:51:17;16.87;;;8.13;;
27293;SDS011;14785;52.556;13.430;2023-03-01T07:53:45;22.83;;;8.23;;
27293;SDS011;14785;52.556;13.430;2023-03-01T07:56:12;19.83;;;9.10;;
27293;SDS011;14785;52.556;13.430;2023-03-01T07:58:42;22.67;;;10.50;;
27293;SDS011;14785;52.556;13.430;2023-03-01T08:01:09;11.85;;;5.97;;
27293;SDS011;14785;52.556;13.430;2023-03-01T08:03:36;25.23;;;8.00;;
27293;SDS011;14785;52.556;13.430;2023-03-01T08:06:03;13.55;;;7.57;;
27293;SDS011;14785;52.556;13.430;2023-03-01T08:08:30;14.40;;;8.95;;
27293;SDS011;14785;52.556;13.430;2023-03-01T08:10:57;26.63;;;8.38;;
27293;SDS011;14785;52.556;13.430;2023-03-01T08:13:23;15.15;;;7.93;;
27293;SDS011;14785;52.556;13.430;2023-03-01T08:15:48;17.07;;;7.80;;
27293;SDS011;14785;52.556;13.430;2023-03-01T08:18:15;17.05;;;6.45;;
27293;SDS011;14785;52.556;13.430;2023-03-01T08:20:41;13.05;;;7.32;;
27293;SDS011;14785;52.556;13.430;2023-03-01T08:23:06;20.23;;;7.10;;
27293;SDS011;14785;52.556;13.430;2023-03-01T08:25:32;11.47;;;5.53;;
27293;SDS011;14785;52.556;13.430;2023-03-01T08:27:57;13.57;;;6.23;;
27293;SDS011;14785;52.556;13.430;2023-03-01T08:30:23;12.23;;;6.57;;
27293;SDS011;14785;52.556;13.430;2023-03-01T08:32:49;11.95;;;6.00;;
27293;SDS011;14785;52.556;13.430;2023-03-01T08:35:14;13.70;;;6.05;;
27293;SDS011;14785;52.556;13.430;2023-03-01T08:37:40;14.15;;;6.72;;
27293;SDS011;14785;52.556;13.430;2023-03-01T08:40:06;13.07;;;5.97;;
27293;SDS011;14785;52.556;13.430;2023-03-01T08:42:34;7.60;;;4.15;;
27293;SDS011;14785;52.556;13.430;2023-03-01T08:47:26;11.50;;;3.83;;
27293;SDS011;14785;52.556;13.430;2023-03-01T08:49:52;13.47;;;4.80;;
27293;SDS011;14785;52.556;13.430;2023-03-01T08:52:17;11.83;;;4.50;;
27293;SDS011;14785;52.556;13.430;2023-03-01T08:54:44;11.90;;;5.32;;
27293;SDS011;14785;52.556;13.430;2023-03-01T08:57:09;9.87;;;4.33;;
27293;SDS011;14785;52.556;13.430;2023-03-01T08:59:35;7.73;;;3.93;;
27293;SDS011;14785;52.556;13.430;2023-03-01T09:02:02;10.52;;;3.95;;
27293;SDS011;14785;52.556;13.430;2023-03-01T09:04:35;6.05;;;3.63;;
27293;SDS011;14785;52.556;13.430;2023-03-01T09:07:01;9.20;;;4.83;;
27293;SDS011;14785;52.556;13.430;2023-03-01T09:09:26;13.47;;;4.73;;
27293;SDS011;14785;52.556;13.430;2023-03-01T09:11:51;6.30;;;3.90;;
27293;SDS011;14785;52.556;13.430;2023-03-01T09:14:17;9.50;;;4.47;;
27293;SDS011;14785;52.556;13.430;2023-03-01T09:16:42;4.77;;;2.73;;
27293;SDS011;14785;52.556;13.430;2023-03-01T09:19:08;7.13;;;3.53;;
27293;SDS011;14785;52.556;13.430;2023-03-01T09:21:33;7.23;;;3.20;;
27293;SDS011;14785;52.556;13.430;2023-03-01T09:23:59;6.65;;;3.45;;
27293;SDS011;14785;52.556;13.430;2023-03-01T09:26:25;11.87;;;3.87;;
27293;SDS011;14785;52.556;13.430;2023-03-01T09:28:52;3.97;;;2.95;;
27293;SDS011;14785;52.556;13.430;2023-03-01T09:31:20;9.13;;;4.20;;
27293;SDS011;14785;52.556;13.430;2023-03-01T09:33:48;6.95;;;3.63;;
27293;SDS011;14785;52.556;13.430;2023-03-01T09:36:19;18.42;;;4.40;;
27293;SDS011;14785;52.556;13.430;2023-03-01T09:38:46;9.43;;;3.38;;
27293;SDS011;14785;52.556;13.430;2023-03-01T09:43:44;3.60;;;2.88;;
27293;SDS011;14785;52.556;13.430;2023-03-01T09:46:14;5.97;;;2.45;;
27293;SDS011;14785;52.556;13.430;2023-03-01T09:48:54;3.83;;;2.67;;
27293;SDS011;14785;52.556;13.430;2023-03-01T09:51:29;2.42;;;1.38;;
27293;SDS011;14785;52.556;13.430;2023-03-01T09:53:57;5.22;;;2.45;;
27293;SDS011;14785;52.556;13.430;2023-03-01T10:01:54;7.55;;;2.33;;
27293;SDS011;14785;52.556;13.430;2023-03-01T10:04:46;4.50;;;1.90;;
27293;SDS011;14785;52.556;13.430;2023-03-01T10:07:38;8.90;;;2.90;;
27293;SDS011;14785;52.556;13.430;2023-03-01T10:10:26;4.53;;;2.30;;
27293;SDS011;14785;52.556;13.430;2023-03-01T10:12:57;3.35;;;2.50;;
27293;SDS011;14785;52.556;13.430;2023-03-01T10:15:34;4.10;;;2.20;;
27293;SDS011;14785;52.556;13.430;2023-03-01T10:18:06;3.05;;;1.45;;
27293;SDS011;14785;52.556;13.430;2023-03-01T10:23:16;3.22;;;1.95;;
27293;SDS011;14785;52.556;13.430;2023-03-01T10:28:39;4.53;;;2.13;;
27293;SDS011;14785;52.556;13.430;2023-03-01T10:31:12;5.47;;;2.22;;
27293;SDS011;14785;52.556;13.430;2023-03-01T10:33:39;8.70;;;2.47;;
27293;SDS011;14785;52.556;13.430;2023-03-01T10:36:06;4.10;;;2.00;;
27293;SDS011;14785;52.556;13.430;2023-03-01T10:38:46;5.45;;;2.33;;
27293;SDS011;14785;52.556;13.430;2023-03-01T10:41:14;4.93;;;2.08;;
27293;SDS011;14785;52.556;13.430;2023-03-01T10:43:44;3.13;;;1.87;;
27293;SDS011;14785;52.556;13.430;2023-03-01T10:51:47;3.35;;;2.10;;
27293;SDS011;14785;52.556;13.430;2023-03-01T10:56:48;4.28;;;1.85;;
27293;SDS011;14785;52.556;13.430;2023-03-01T10:59:22;5.75;;;2.83;;
27293;SDS011;14785;52.556;13.430;2023-03-01T11:02:00;3.50;;;1.92;;
27293;SDS011;14785;52.556;13.430;2023-03-01T11:04:27;3.92;;;2.00;;
27293;SDS011;14785;52.556;13.430;2023-03-01T11:07:00;3.27;;;1.90;;
27293;SDS011;14785;52.556;13.430;2023-03-01T11:09:29;6.95;;;1.83;;
27293;SDS011;14785;52.556;13.430;2023-03-01T11:12:02;4.55;;;1.60;;
27293;SDS011;14785;52.556;13.430;2023-03-01T11:14:35;2.80;;;1.65;;
27293;SDS011;14785;52.556;13.430;2023-03-01T11:17:13;10.63;;;2.90;;
27293;SDS011;14785;52.556;13.430;2023-03-01T11:19:42;8.40;;;2.13;;
27293;SDS011;14785;52.556;13.430;2023-03-01T11:22:12;6.47;;;2.53;;
27293;SDS011;14785;52.556;13.430;2023-03-01T11:27:24;3.55;;;2.05;;
27293;SDS011;14785;52.556;13.430;2023-03-01T11:30:05;2.63;;;1.77;;
27293;SDS011;14785;52.556;13.430;2023-03-01T11:35:36;3.15;;;1.67;;
27293;SDS011;14785;52.556;13.430;2023-03-01T11:38:23;6.32;;;2.10;;
27293;SDS011;14785;52.556;13.430;2023-03-01T12:08:20;8.75;;;2.00;;
27293;SDS011;14785;52.556;13.430;2023-03-01T12:18:47;2.75;;;1.42;;
27293;SDS011;14785;52.556;13.430;2023-03-01T12:24:27;5.65;;;2.55;;
27293;SDS011;14785;52.556;13.430;2023-03-01T12:29:31;12.52;;;2.00;;
27293;SDS011;14785;52.556;13.430;2023-03-01T12:32:00;1.85;;;1.33;;
27293;SDS011;14785;52.556;13.430;2023-03-01T12:40:01;5.40;;;2.25;;
27293;SDS011;14785;52.556;13.430;2023-03-01T12:42:40;4.00;;;1.80;;
27293;SDS011;14785;52.556;13.430;2023-03-01T12:50:42;4.70;;;1.70;;
27293;SDS011;14785;52.556;13.430;2023-03-01T12:53:31;4.22;;;1.27;;
27293;SDS011;14785;52.556;13.430;2023-03-01T12:56:08;3.92;;;1.60;;
27293;SDS011;14785;52.556;13.430;2023-03-01T12:58:39;1.87;;;1.47;;
27293;SDS011;14785;52.556;13.430;2023-03-01T13:01:22;3.65;;;2.00;;
27293;SDS011;14785;52.556;13.430;2023-03-01T13:12:43;4.70;;;1.67;;
27293;SDS011;14785;52.556;13.430;2023-03-01T13:15:36;2.67;;;1.17;;
27293;SDS011;14785;52.556;13.430;2023-03-01T13:20:57;4.72;;;1.92;;
27293;SDS011;14785;52.556;13.430;2023-03-01T13:23:26;3.58;;;1.30;;
27293;SDS011;14785;52.556;13.430;2023-03-01T13:31:01;4.30;;;1.02;;
27293;SDS011;14785;52.556;13.430;2023-03-01T13:35:53;2.60;;;1.50;;
27293;SDS011;14785;52.556;13.430;2023-03-01T13:41:16;2.63;;;1.25;;
27293;SDS011;14785;52.556;13.430;2023-03-01T13:44:02;4.63;;;1.50;;
27293;SDS011;14785;52.556;13.430;2023-03-01T13:46:53;2.58;;;1.40;;
27293;SDS011;14785;52.556;13.430;2023-03-01T13:49:27;2.90;;;1.30;;
27293;SDS011;14785;52.556;13.430;2023-03-01T13:51:58;2.00;;;1.20;;
27293;SDS011;14785;52.556;13.430;2023-03-01T13:54:30;9.83;;;1.87;;
27293;SDS011;14785;52.556;13.430;2023-03-01T13:56:58;7.15;;;1.92;;
27293;SDS011;14785;52.556;13.430;2023-03-01T13:59:26;12.95;;;1.90;;
27293;SDS011;14785;52.556;13.430;2023-03-01T14:01:52;2.53;;;1.30;;
27293;SDS011;14785;52.556;13.430;2023-03-01T14:04:27;3.97;;;1.20;;
27293;SDS011;14785;52.556;13.430;2023-03-01T14:10:01;4.22;;;1.52;;
27293;SDS011;14785;52.556;13.430;2023-03-01T14:15:22;3.75;;;1.23;;
27293;SDS011;14785;52.556;13.430;2023-03-01T14:18:04;2.25;;;1.38;;
27293;SDS011;14785;52.556;13.430;2023-03-01T14:20:49;3.38;;;1.48;;
27293;SDS011;14785;52.556;13.430;2023-03-01T14:23:18;3.63;;;1.80;;
27293;SDS011;14785;52.556;13.430;2023-03-01T14:25:50;2.38;;;1.25;;
27293;SDS011;14785;52.556;13.430;2023-03-01T14:28:18;3.45;;;1.42;;
27293;SDS011;14785;52.556;13.430;2023-03-01T14:30:48;3.70;;;1.50;;
27293;SDS011;14785;52.556;13.430;2023-03-01T14:36:08;3.25;;;1.40;;
27293;SDS011;14785;52.556;13.430;2023-03-01T14:38:36;1.35;;;1.20;;
27293;SDS011;14785;52.556;13.430;2023-03-01T14:43:45;5.07;;;1.58;;
27293;SDS011;14785;52.556;13.430;2023-03-01T14:46:21;2.53;;;1.38;;
27293;SDS011;14785;52.556;13.430;2023-03-01T14:48:54;3.35;;;1.58;;
27293;SDS011;14785;52.556;13.430;2023-03-01T14:51:23;10.77;;;2.38;;
27293;SDS011;14785;52.556;13.430;2023-03-01T14:53:49;16.20;;;6.13;;
27293;SDS011;14785;52.556;13.430;2023-03-01T14:56:17;9.05;;;1.38;;
27293;SDS011;14785;52.556;13.430;2023-03-01T14:58:45;1.75;;;1.15;;
27293;SDS011;14785;52.556;13.430;2023-03-01T15:01:15;2.47;;;1.48;;
27293;SDS011;14785;52.556;13.430;2023-03-01T15:03:49;2.58;;;1.83;;
27293;SDS011;14785;52.556;13.430;2023-03-01T15:06:19;3.28;;;1.52;;
27293;SDS011;14785;52.556;13.430;2023-03-01T15:08:49;3.45;;;1.40;;
27293;SDS011;14785;52.556;13.430;2023-03-01T15:13:52;3.83;;;1.58;;
27293;SDS011;14785;52.556;13.430;2023-03-01T15:16:18;2.90;;;1.85;;
27293;SDS011;14785;52.556;13.430;2023-03-01T15:18:48;2.95;;;1.73;;
27293;SDS011;14785;52.556;13.430;2023-03-01T15:21:35;3.70;;;1.83;;
27293;SDS011;14785;52.556;13.430;2023-03-01T15:24:06;4.72;;;1.45;;
27293;SDS011;14785;52.556;13.430;2023-03-01T15:29:27;3.88;;;1.63;;
27293;SDS011;14785;52.556;13.430;2023-03-01T15:36:54;3.78;;;2.28;;
27293;SDS011;14785;52.556;13.430;2023-03-01T15:39:41;5.28;;;1.85;;
27293;SDS011;14785;52.556;13.430;2023-03-01T15:44:37;4.35;;;1.23;;
27293;SDS011;14785;52.556;13.430;2023-03-01T15:47:28;5.32;;;1.88;;
27293;SDS011;14785;52.556;13.430;2023-03-01T15:49:56;3.83;;;1.77;;
27293;SDS011;14785;52.556;13.430;2023-03-01T15:52:28;4.43;;;1.33;;
27293;SDS011;14785;52.556;13.430;2023-03-01T15:55:00;8.45;;;1.50;;
27293;SDS011;14785;52.556;13.430;2023-03-01T15:57:27;10.80;;;2.13;;
27293;SDS011;14785;52.556;13.430;2023-03-01T15:59:53;4.35;;;1.38;;
27293;SDS011;14785;52.556;13.430;2023-03-01T16:02:19;7.63;;;1.93;;
27293;SDS011;14785;52.556;13.430;2023-03-01T16:04:46;3.88;;;2.10;;
27293;SDS011;14785;52.556;13.430;2023-03-01T16:07:13;6.43;;;1.60;;
27293;SDS011;14785;52.556;13.430;2023-03-01T16:09:39;5.47;;;1.87;;
27293;SDS011;14785;52.556;13.430;2023-03-01T16:12:05;7.23;;;1.93;;
27293;SDS011;14785;52.556;13.430;2023-03-01T16:14:31;3.42;;;1.95;;
27293;SDS011;14785;52.556;13.430;2023-03-01T16:16:56;3.33;;;1.50;;
27293;SDS011;14785;52.556;13.430;2023-03-01T16:19:22;4.07;;;1.93;;
27293;SDS011;14785;52.556;13.430;2023-03-01T16:21:48;2.50;;;1.30;;
27293;SDS011;14785;52.556;13.430;2023-03-01T16:24:15;2.60;;;1.48;;
27293;SDS011;14785;52.556;13.430;2023-03-01T16:26:40;14.07;;;1.97;;
27293;SDS011;14785;52.556;13.430;2023-03-01T16:29:08;6.22;;;2.10;;
27293;SDS011;14785;52.556;13.430;2023-03-01T16:31:34;4.80;;;1.77;;
27293;SDS011;14785;52.556;13.430;2023-03-01T16:33:59;4.40;;;1.70;;
27293;SDS011;14785;52.556;13.430;2023-03-01T16:36:25;9.00;;;1.87;;
27293;SDS011;14785;52.556;13.430;2023-03-01T16:38:53;4.47;;;1.65;;
27293;SDS011;14785;52.556;13.430;2023-03-01T16:41:20;1.27;;;0.98;;
27293;SDS011;14785;52.556;13.430;2023-03-01T16:43:47;5.82;;;2.10;;
27293;SDS011;14785;52.556;13.430;2023-03-01T16:46:13;4.20;;;1.98;;
27293;SDS011;14785;52.556;13.430;2023-03-01T16:48:40;5.50;;;1.30;;
27293;SDS011;14785;52.556;13.430;2023-03-01T16:51:06;3.93;;;1.63;;
27293;SDS011;14785;52.556;13.430;2023-03-01T16:53:32;3.92;;;1.85;;
27293;SDS011;14785;52.556;13.430;2023-03-01T16:56:01;3.05;;;1.50;;
27293;SDS011;14785;52.556;13.430;2023-03-01T16:58:28;4.85;;;2.40;;
27293;SDS011;14785;52.556;13.430;2023-03-01T17:00:54;3.70;;;1.63;;
27293;SDS011;14785;52.556;13.430;2023-03-01T17:03:21;2.17;;;1.40;;
27293;SDS011;14785;52.556;13.430;2023-03-01T17:05:47;5.03;;;2.30;;
27293;SDS011;14785;52.556;13.430;2023-03-01T17:08:13;5.55;;;2.53;;
27293;SDS011;14785;52.556;13.430;2023-03-01T17:10:38;4.10;;;2.00;;
27293;SDS011;14785;52.556;13.430;2023-03-01T17:13:04;10.10;;;2.43;;
27293;SDS011;14785;52.556;13.430;2023-03-01T17:15:29;5.67;;;2.33;;